sensor_id;sensor_type;location;lat;lon;timestamp;P1;durP1;ratioP1;P2;durP2;ratioP2
54831;SDS011;40730;53.068;6.572;2023-06-19T00:01:54;6.93;;;5.35;;
54831;SDS011;40730;53.068;6.572;2023-06-19T00:04:20;8.52;;;5.25;;
54831;SDS011;40730;53.068;6.572;2023-06-19T00:06:46;7.93;;;5.47;;
54831;SDS011;40730;53.068;6.572;2023-06-19T00:09:11;6.30;;;5.22;;
54831;SDS011;40730;53.068;6.572;2023-06-19T00:11:37;5.20;;;4.32;;
54831;SDS011;40730;53.068;6.572;2023-06-19T00:14:02;5.40;;;4.90;;
54831;SDS011;40730;53.068;6.572;2023-06-19T00:16:28;8.43;;;4.82;;
54831;SDS011;40730;53.068;6.572;2023-06-19T00:18:54;4.72;;;4.43;;
54831;SDS011;40730;53.068;6.572;2023-06-19T00:21:24;7.47;;;5.35;;
54831;SDS011;40730;53.068;6.572;2023-06-19T00:23:50;6.00;;;5.20;;
54831;SDS011;40730;53.068;6.572;2023-06-19T00:26:17;8.52;;;4.95;;
54831;SDS011;40730;53.068;6.572;2023-06-19T00:28:44;6.60;;;5.18;;
54831;SDS011;40730;53.068;6.572;2023-06-19T00:31:12;5.90;;;4.75;;
54831;SDS011;40730;53.068;6.572;2023-06-19T00:33:39;6.50;;;5.82;;
54831;SDS011;40730;53.068;6.572;2023-06-19T00:36:09;7.05;;;4.57;;
54831;SDS011;40730;53.068;6.572;2023-06-19T00:38:35;5.80;;;5.25;;
54831;SDS011;40730;53.068;6.572;2023-06-19T00:41:01;5.70;;;4.88;;
54831;SDS011;40730;53.068;6.572;2023-06-19T00:43:28;6.38;;;4.82;;
54831;SDS011;40730;53.068;6.572;2023-06-19T00:45:55;5.35;;;4.85;;
54831;SDS011;40730;53.068;6.572;2023-06-19T00:48:22;5.75;;;5.18;;
54831;SDS011;40730;53.068;6.572;2023-06-19T00:50:48;5.60;;;4.85;;
54831;SDS011;40730;53.068;6.572;2023-06-19T00:53:15;5.35;;;4.85;;
54831;SDS011;40730;53.068;6.572;2023-06-19T00:55:41;7.70;;;4.78;;
54831;SDS011;40730;53.068;6.572;2023-06-19T00:58:08;6.30;;;5.00;;
54831;SDS011;40730;53.068;6.572;2023-06-19T01:00:34;5.47;;;4.97;;
54831;SDS011;40730;53.068;6.572;2023-06-19T01:02:59;6.13;;;4.80;;
54831;SDS011;40730;53.068;6.572;2023-06-19T01:05:25;5.22;;;4.57;;
54831;SDS011;40730;53.068;6.572;2023-06-19T01:08:02;6.28;;;4.65;;
54831;SDS011;40730;53.068;6.572;2023-06-19T01:10:38;6.35;;;4.90;;
54831;SDS011;40730;53.068;6.572;2023-06-19T01:13:17;5.53;;;4.75;;
54831;SDS011;40730;53.068;6.572;2023-06-19T01:15:44;6.13;;;5.50;;
54831;SDS011;40730;53.068;6.572;2023-06-19T01:18:11;6.82;;;5.55;;
54831;SDS011;40730;53.068;6.572;2023-06-19T01:20:37;4.93;;;4.53;;
54831;SDS011;40730;53.068;6.572;2023-06-19T01:23:10;5.63;;;4.47;;
54831;SDS011;40730;53.068;6.572;2023-06-19T01:25:36;5.68;;;5.13;;
54831;SDS011;40730;53.068;6.572;2023-06-19T01:28:02;5.22;;;4.82;;
54831;SDS011;40730;53.068;6.572;2023-06-19T01:30:31;7.65;;;5.40;;
54831;SDS011;40730;53.068;6.572;2023-06-19T01:33:03;5.20;;;4.78;;
54831;SDS011;40730;53.068;6.572;2023-06-19T01:35:51;6.05;;;5.43;;
54831;SDS011;40730;53.068;6.572;2023-06-19T01:38:18;7.40;;;4.97;;
54831;SDS011;40730;53.068;6.572;2023-06-19T01:40:46;6.10;;;5.50;;
54831;SDS011;40730;53.068;6.572;2023-06-19T01:43:13;5.88;;;5.03;;
54831;SDS011;40730;53.068;6.572;2023-06-19T01:45:41;7.72;;;5.30;;
54831;SDS011;40730;53.068;6.572;2023-06-19T01:48:07;9.23;;;5.32;;
54831;SDS011;40730;53.068;6.572;2023-06-19T01:50:33;6.80;;;4.65;;
54831;SDS011;40730;53.068;6.572;2023-06-19T01:52:59;5.78;;;4.90;;
54831;SDS011;40730;53.068;6.572;2023-06-19T01:55:24;6.45;;;4.97;;
54831;SDS011;40730;53.068;6.572;2023-06-19T01:57:50;5.20;;;4.55;;
54831;SDS011;40730;53.068;6.572;2023-06-19T02:00:16;5.97;;;4.57;;
54831;SDS011;40730;53.068;6.572;2023-06-19T02:02:42;5.97;;;5.13;;
54831;SDS011;40730;53.068;6.572;2023-06-19T02:05:08;5.80;;;5.25;;
54831;SDS011;40730;53.068;6.572;2023-06-19T02:07:34;6.28;;;5.22;;
54831;SDS011;40730;53.068;6.572;2023-06-19T02:09:59;6.07;;;5.38;;
54831;SDS011;40730;53.068;6.572;2023-06-19T02:12:25;6.10;;;5.22;;
54831;SDS011;40730;53.068;6.572;2023-06-19T02:14:51;5.97;;;5.18;;
54831;SDS011;40730;53.068;6.572;2023-06-19T02:17:16;5.70;;;5.03;;
54831;SDS011;40730;53.068;6.572;2023-06-19T02:19:42;6.10;;;5.13;;
54831;SDS011;40730;53.068;6.572;2023-06-19T02:22:08;5.50;;;4.97;;
54831;SDS011;40730;53.068;6.572;2023-06-19T02:24:33;6.43;;;5.00;;
54831;SDS011;40730;53.068;6.572;2023-06-19T02:26:59;6.90;;;5.20;;
54831;SDS011;40730;53.068;6.572;2023-06-19T02:29:25;5.75;;;5.20;;
54831;SDS011;40730;53.068;6.572;2023-06-19T02:31:51;5.80;;;5.28;;
54831;SDS011;40730;53.068;6.572;2023-06-19T02:34:17;5.20;;;4.70;;
54831;SDS011;40730;53.068;6.572;2023-06-19T02:36:42;6.15;;;5.55;;
54831;SDS011;40730;53.068;6.572;2023-06-19T02:39:08;6.70;;;5.97;;
54831;SDS011;40730;53.068;6.572;2023-06-19T02:41:34;6.07;;;5.38;;
54831;SDS011;40730;53.068;6.572;2023-06-19T02:44:00;6.18;;;5.15;;
54831;SDS011;40730;53.068;6.572;2023-06-19T02:46:26;5.57;;;5.15;;
54831;SDS011;40730;53.068;6.572;2023-06-19T02:48:52;8.43;;;5.50;;
54831;SDS011;40730;53.068;6.572;2023-06-19T02:51:17;7.45;;;5.65;;
54831;SDS011;40730;53.068;6.572;2023-06-19T02:53:43;5.28;;;4.60;;
54831;SDS011;40730;53.068;6.572;2023-06-19T02:56:09;6.05;;;5.50;;
54831;SDS011;40730;53.068;6.572;2023-06-19T02:58:36;5.40;;;4.60;;
54831;SDS011;40730;53.068;6.572;2023-06-19T03:01:02;5.70;;;4.90;;
54831;SDS011;40730;53.068;6.572;2023-06-19T03:03:28;9.40;;;5.07;;
54831;SDS011;40730;53.068;6.572;2023-06-19T03:05:54;6.82;;;5.90;;
54831;SDS011;40730;53.068;6.572;2023-06-19T03:08:20;5.57;;;5.10;;
54831;SDS011;40730;53.068;6.572;2023-06-19T03:10:45;6.13;;;5.53;;
54831;SDS011;40730;53.068;6.572;2023-06-19T03:13:12;6.10;;;5.60;;
54831;SDS011;40730;53.068;6.572;2023-06-19T03:15:38;5.70;;;4.88;;
54831;SDS011;40730;53.068;6.572;2023-06-19T03:18:04;5.88;;;5.28;;
54831;SDS011;40730;53.068;6.572;2023-06-19T03:20:32;5.80;;;4.82;;
54831;SDS011;40730;53.068;6.572;2023-06-19T03:22:58;7.45;;;4.80;;
54831;SDS011;40730;53.068;6.572;2023-06-19T03:25:23;7.75;;;5.22;;
54831;SDS011;40730;53.068;6.572;2023-06-19T03:27:49;8.95;;;5.15;;
54831;SDS011;40730;53.068;6.572;2023-06-19T03:30:15;6.38;;;4.97;;
54831;SDS011;40730;53.068;6.572;2023-06-19T03:32:43;6.40;;;5.20;;
54831;SDS011;40730;53.068;6.572;2023-06-19T03:35:09;5.65;;;5.10;;
54831;SDS011;40730;53.068;6.572;2023-06-19T03:37:35;7.28;;;5.40;;
54831;SDS011;40730;53.068;6.572;2023-06-19T03:40:01;6.78;;;4.95;;
54831;SDS011;40730;53.068;6.572;2023-06-19T03:42:28;5.70;;;5.05;;
54831;SDS011;40730;53.068;6.572;2023-06-19T03:44:54;5.25;;;4.75;;
54831;SDS011;40730;53.068;6.572;2023-06-19T03:47:19;7.57;;;5.25;;
54831;SDS011;40730;53.068;6.572;2023-06-19T03:49:46;10.52;;;5.43;;
54831;SDS011;40730;53.068;6.572;2023-06-19T03:52:13;5.28;;;4.78;;
54831;SDS011;40730;53.068;6.572;2023-06-19T03:54:39;5.15;;;4.50;;
54831;SDS011;40730;53.068;6.572;2023-06-19T03:57:05;5.97;;;4.32;;
54831;SDS011;40730;53.068;6.572;2023-06-19T03:59:31;5.13;;;3.78;;
54831;SDS011;40730;53.068;6.572;2023-06-19T04:01:57;4.65;;;4.15;;
54831;SDS011;40730;53.068;6.572;2023-06-19T04:04:22;4.82;;;4.40;;
54831;SDS011;40730;53.068;6.572;2023-06-19T04:06:48;5.28;;;4.65;;
54831;SDS011;40730;53.068;6.572;2023-06-19T04:09:13;5.88;;;4.70;;
54831;SDS011;40730;53.068;6.572;2023-06-19T04:11:39;5.85;;;4.18;;
54831;SDS011;40730;53.068;6.572;2023-06-19T04:14:05;6.88;;;4.57;;
54831;SDS011;40730;53.068;6.572;2023-06-19T04:16:30;5.70;;;4.15;;
54831;SDS011;40730;53.068;6.572;2023-06-19T04:18:56;6.88;;;4.85;;
54831;SDS011;40730;53.068;6.572;2023-06-19T04:21:21;6.95;;;4.18;;
54831;SDS011;40730;53.068;6.572;2023-06-19T04:23:47;6.45;;;4.35;;
54831;SDS011;40730;53.068;6.572;2023-06-19T04:26:13;5.00;;;4.05;;
54831;SDS011;40730;53.068;6.572;2023-06-19T04:28:38;5.70;;;4.30;;
54831;SDS011;40730;53.068;6.572;2023-06-19T04:31:04;5.15;;;4.30;;
54831;SDS011;40730;53.068;6.572;2023-06-19T04:33:30;5.45;;;4.47;;
54831;SDS011;40730;53.068;6.572;2023-06-19T04:35:57;5.57;;;3.80;;
54831;SDS011;40730;53.068;6.572;2023-06-19T04:38:22;5.10;;;3.92;;
54831;SDS011;40730;53.068;6.572;2023-06-19T04:40:49;6.93;;;3.97;;
54831;SDS011;40730;53.068;6.572;2023-06-19T04:43:15;3.88;;;3.58;;
54831;SDS011;40730;53.068;6.572;2023-06-19T04:45:41;5.13;;;3.80;;
54831;SDS011;40730;53.068;6.572;2023-06-19T04:48:07;5.82;;;4.18;;
54831;SDS011;40730;53.068;6.572;2023-06-19T04:50:32;5.07;;;3.42;;
54831;SDS011;40730;53.068;6.572;2023-06-19T04:52:59;8.18;;;3.42;;
54831;SDS011;40730;53.068;6.572;2023-06-19T04:55:24;4.03;;;3.05;;
54831;SDS011;40730;53.068;6.572;2023-06-19T04:57:50;3.78;;;2.80;;
54831;SDS011;40730;53.068;6.572;2023-06-19T05:00:16;3.22;;;2.92;;
54831;SDS011;40730;53.068;6.572;2023-06-19T05:02:44;3.60;;;3.30;;
54831;SDS011;40730;53.068;6.572;2023-06-19T05:05:12;5.35;;;3.15;;
54831;SDS011;40730;53.068;6.572;2023-06-19T05:07:38;3.22;;;2.85;;
54831;SDS011;40730;53.068;6.572;2023-06-19T05:10:04;7.68;;;2.63;;
54831;SDS011;40730;53.068;6.572;2023-06-19T05:12:30;4.57;;;2.20;;
54831;SDS011;40730;53.068;6.572;2023-06-19T05:14:56;3.28;;;2.65;;
54831;SDS011;40730;53.068;6.572;2023-06-19T05:17:21;5.18;;;2.70;;
54831;SDS011;40730;53.068;6.572;2023-06-19T05:19:47;2.80;;;2.50;;
54831;SDS011;40730;53.068;6.572;2023-06-19T05:22:13;6.55;;;2.90;;
54831;SDS011;40730;53.068;6.572;2023-06-19T05:24:39;3.25;;;2.95;;
54831;SDS011;40730;53.068;6.572;2023-06-19T05:27:04;2.75;;;2.55;;
54831;SDS011;40730;53.068;6.572;2023-06-19T05:29:31;6.35;;;2.85;;
54831;SDS011;40730;53.068;6.572;2023-06-19T05:31:57;3.83;;;2.50;;
54831;SDS011;40730;53.068;6.572;2023-06-19T05:34:23;3.13;;;2.80;;
54831;SDS011;40730;53.068;6.572;2023-06-19T05:36:48;5.43;;;3.25;;
54831;SDS011;40730;53.068;6.572;2023-06-19T05:39:14;5.13;;;2.67;;
54831;SDS011;40730;53.068;6.572;2023-06-19T05:41:40;2.80;;;2.60;;
54831;SDS011;40730;53.068;6.572;2023-06-19T05:44:05;2.67;;;2.47;;
54831;SDS011;40730;53.068;6.572;2023-06-19T05:46:31;3.42;;;2.60;;
54831;SDS011;40730;53.068;6.572;2023-06-19T05:48:56;5.38;;;3.50;;
54831;SDS011;40730;53.068;6.572;2023-06-19T05:51:22;4.05;;;3.65;;
54831;SDS011;40730;53.068;6.572;2023-06-19T05:53:48;3.63;;;3.33;;
54831;SDS011;40730;53.068;6.572;2023-06-19T05:56:14;4.95;;;4.20;;
54831;SDS011;40730;53.068;6.572;2023-06-19T05:58:40;4.25;;;3.72;;
54831;SDS011;40730;53.068;6.572;2023-06-19T06:01:06;4.07;;;3.65;;
54831;SDS011;40730;53.068;6.572;2023-06-19T06:03:32;4.03;;;3.65;;
54831;SDS011;40730;53.068;6.572;2023-06-19T06:05:58;4.32;;;3.85;;
54831;SDS011;40730;53.068;6.572;2023-06-19T06:08:30;4.72;;;4.00;;
54831;SDS011;40730;53.068;6.572;2023-06-19T06:10:57;7.47;;;5.55;;
54831;SDS011;40730;53.068;6.572;2023-06-19T06:13:22;8.45;;;5.50;;
54831;SDS011;40730;53.068;6.572;2023-06-19T06:15:48;7.78;;;6.28;;
54831;SDS011;40730;53.068;6.572;2023-06-19T06:18:15;5.75;;;5.18;;
54831;SDS011;40730;53.068;6.572;2023-06-19T06:20:41;5.47;;;4.13;;
54831;SDS011;40730;53.068;6.572;2023-06-19T06:23:06;6.32;;;4.25;;
54831;SDS011;40730;53.068;6.572;2023-06-19T06:25:32;5.03;;;4.40;;
54831;SDS011;40730;53.068;6.572;2023-06-19T06:27:57;3.92;;;3.28;;
54831;SDS011;40730;53.068;6.572;2023-06-19T06:30:23;3.90;;;3.10;;
54831;SDS011;40730;53.068;6.572;2023-06-19T06:32:49;4.85;;;3.00;;
54831;SDS011;40730;53.068;6.572;2023-06-19T06:35:15;4.15;;;3.50;;
54831;SDS011;40730;53.068;6.572;2023-06-19T06:37:41;4.88;;;3.45;;
54831;SDS011;40730;53.068;6.572;2023-06-19T06:40:07;4.18;;;3.10;;
54831;SDS011;40730;53.068;6.572;2023-06-19T06:42:38;2.63;;;2.22;;
54831;SDS011;40730;53.068;6.572;2023-06-19T06:45:05;2.85;;;2.65;;
54831;SDS011;40730;53.068;6.572;2023-06-19T06:47:31;4.47;;;3.08;;
54831;SDS011;40730;53.068;6.572;2023-06-19T06:49:57;2.92;;;2.72;;
54831;SDS011;40730;53.068;6.572;2023-06-19T06:52:23;6.28;;;2.65;;
54831;SDS011;40730;53.068;6.572;2023-06-19T06:54:49;3.92;;;3.63;;
54831;SDS011;40730;53.068;6.572;2023-06-19T06:57:15;7.40;;;4.63;;
54831;SDS011;40730;53.068;6.572;2023-06-19T06:59:41;5.82;;;5.30;;
54831;SDS011;40730;53.068;6.572;2023-06-19T07:02:07;9.38;;;6.72;;
54831;SDS011;40730;53.068;6.572;2023-06-19T07:04:32;9.23;;;7.25;;
54831;SDS011;40730;53.068;6.572;2023-06-19T07:06:58;9.35;;;7.75;;
54831;SDS011;40730;53.068;6.572;2023-06-19T07:09:24;10.60;;;8.93;;
54831;SDS011;40730;53.068;6.572;2023-06-19T07:11:49;9.82;;;8.90;;
54831;SDS011;40730;53.068;6.572;2023-06-19T07:14:15;9.88;;;8.77;;
54831;SDS011;40730;53.068;6.572;2023-06-19T07:16:46;13.48;;;12.18;;
54831;SDS011;40730;53.068;6.572;2023-06-19T07:19:12;16.83;;;14.68;;
54831;SDS011;40730;53.068;6.572;2023-06-19T07:21:38;14.55;;;13.05;;
54831;SDS011;40730;53.068;6.572;2023-06-19T07:24:04;15.48;;;13.77;;
54831;SDS011;40730;53.068;6.572;2023-06-19T07:26:30;16.45;;;13.85;;
54831;SDS011;40730;53.068;6.572;2023-06-19T07:28:56;16.25;;;12.85;;
54831;SDS011;40730;53.068;6.572;2023-06-19T07:31:22;17.63;;;13.13;;
54831;SDS011;40730;53.068;6.572;2023-06-19T07:33:47;16.48;;;13.65;;
54831;SDS011;40730;53.068;6.572;2023-06-19T07:36:13;15.82;;;13.20;;
54831;SDS011;40730;53.068;6.572;2023-06-19T07:38:41;13.77;;;12.38;;
54831;SDS011;40730;53.068;6.572;2023-06-19T07:41:08;14.05;;;12.30;;
54831;SDS011;40730;53.068;6.572;2023-06-19T07:43:35;13.90;;;12.18;;
54831;SDS011;40730;53.068;6.572;2023-06-19T07:46:01;14.95;;;11.30;;
54831;SDS011;40730;53.068;6.572;2023-06-19T07:48:27;12.52;;;10.15;;
54831;SDS011;40730;53.068;6.572;2023-06-19T07:50:53;16.08;;;12.07;;
54831;SDS011;40730;53.068;6.572;2023-06-19T07:53:19;13.65;;;10.88;;
54831;SDS011;40730;53.068;6.572;2023-06-19T07:55:44;10.40;;;9.40;;
54831;SDS011;40730;53.068;6.572;2023-06-19T07:58:10;11.40;;;10.05;;
54831;SDS011;40730;53.068;6.572;2023-06-19T08:00:36;11.80;;;9.73;;
54831;SDS011;40730;53.068;6.572;2023-06-19T08:03:01;9.88;;;8.80;;
54831;SDS011;40730;53.068;6.572;2023-06-19T08:05:27;11.73;;;9.05;;
54831;SDS011;40730;53.068;6.572;2023-06-19T08:07:52;9.77;;;8.02;;
54831;SDS011;40730;53.068;6.572;2023-06-19T08:10:18;7.30;;;6.57;;
54831;SDS011;40730;53.068;6.572;2023-06-19T08:12:44;7.05;;;6.35;;
54831;SDS011;40730;53.068;6.572;2023-06-19T08:15:10;6.13;;;5.53;;
54831;SDS011;40730;53.068;6.572;2023-06-19T08:17:38;6.55;;;5.85;;
54831;SDS011;40730;53.068;6.572;2023-06-19T08:20:04;6.07;;;4.65;;
54831;SDS011;40730;53.068;6.572;2023-06-19T08:22:30;5.72;;;5.07;;
54831;SDS011;40730;53.068;6.572;2023-06-19T08:24:56;5.97;;;5.47;;
54831;SDS011;40730;53.068;6.572;2023-06-19T08:27:22;5.13;;;4.63;;
54831;SDS011;40730;53.068;6.572;2023-06-19T08:29:47;4.05;;;3.63;;
54831;SDS011;40730;53.068;6.572;2023-06-19T08:32:13;4.25;;;3.92;;
54831;SDS011;40730;53.068;6.572;2023-06-19T08:34:39;5.47;;;4.97;;
54831;SDS011;40730;53.068;6.572;2023-06-19T08:37:07;3.60;;;3.30;;
54831;SDS011;40730;53.068;6.572;2023-06-19T08:39:33;4.50;;;4.10;;
54831;SDS011;40730;53.068;6.572;2023-06-19T08:41:59;34.40;;;6.03;;
54831;SDS011;40730;53.068;6.572;2023-06-19T08:44:24;5.32;;;2.53;;
54831;SDS011;40730;53.068;6.572;2023-06-19T08:46:50;4.30;;;3.63;;
54831;SDS011;40730;53.068;6.572;2023-06-19T08:49:16;5.03;;;3.40;;
54831;SDS011;40730;53.068;6.572;2023-06-19T08:51:41;3.40;;;3.10;;
54831;SDS011;40730;53.068;6.572;2023-06-19T08:54:07;5.22;;;3.17;;
54831;SDS011;40730;53.068;6.572;2023-06-19T08:56:33;4.90;;;3.15;;
54831;SDS011;40730;53.068;6.572;2023-06-19T08:59:13;3.17;;;2.88;;
54831;SDS011;40730;53.068;6.572;2023-06-19T09:01:39;6.05;;;2.97;;
54831;SDS011;40730;53.068;6.572;2023-06-19T09:04:17;4.32;;;2.80;;
54831;SDS011;40730;53.068;6.572;2023-06-19T09:06:50;4.40;;;2.38;;
54831;SDS011;40730;53.068;6.572;2023-06-19T09:09:18;3.30;;;3.00;;
54831;SDS011;40730;53.068;6.572;2023-06-19T09:11:56;5.43;;;3.38;;
54831;SDS011;40730;53.068;6.572;2023-06-19T09:14:35;6.95;;;3.30;;
54831;SDS011;40730;53.068;6.572;2023-06-19T09:17:06;4.43;;;4.03;;
54831;SDS011;40730;53.068;6.572;2023-06-19T09:19:33;5.07;;;3.00;;
54831;SDS011;40730;53.068;6.572;2023-06-19T09:22:02;4.93;;;3.78;;
54831;SDS011;40730;53.068;6.572;2023-06-19T09:24:35;7.97;;;4.45;;
54831;SDS011;40730;53.068;6.572;2023-06-19T09:27:08;4.85;;;3.92;;
54831;SDS011;40730;53.068;6.572;2023-06-19T09:29:36;6.97;;;4.30;;
54831;SDS011;40730;53.068;6.572;2023-06-19T09:32:13;6.70;;;4.47;;
54831;SDS011;40730;53.068;6.572;2023-06-19T09:37:04;5.57;;;4.35;;
54831;SDS011;40730;53.068;6.572;2023-06-19T09:39:30;5.40;;;4.35;;
54831;SDS011;40730;53.068;6.572;2023-06-19T09:41:56;6.68;;;3.60;;
54831;SDS011;40730;53.068;6.572;2023-06-19T09:44:24;7.55;;;3.20;;
54831;SDS011;40730;53.068;6.572;2023-06-19T09:46:51;4.57;;;3.50;;
54831;SDS011;40730;53.068;6.572;2023-06-19T09:49:19;7.40;;;3.85;;
54831;SDS011;40730;53.068;6.572;2023-06-19T09:51:47;9.02;;;4.50;;
54831;SDS011;40730;53.068;6.572;2023-06-19T09:54:16;5.38;;;4.63;;
54831;SDS011;40730;53.068;6.572;2023-06-19T09:56:43;6.22;;;4.35;;
54831;SDS011;40730;53.068;6.572;2023-06-19T09:59:10;6.35;;;4.55;;
54831;SDS011;40730;53.068;6.572;2023-06-19T10:01:38;6.70;;;4.15;;
54831;SDS011;40730;53.068;6.572;2023-06-19T10:04:07;5.40;;;4.95;;
54831;SDS011;40730;53.068;6.572;2023-06-19T10:07:14;4.80;;;4.28;;
54831;SDS011;40730;53.068;6.572;2023-06-19T10:09:32;5.05;;;4.63;;
54831;SDS011;40730;53.068;6.572;2023-06-19T10:11:57;6.78;;;5.15;;
54831;SDS011;40730;53.068;6.572;2023-06-19T10:14:23;5.32;;;4.78;;
54831;SDS011;40730;53.068;6.572;2023-06-19T10:16:49;5.95;;;5.45;;
54831;SDS011;40730;53.068;6.572;2023-06-19T10:19:15;8.75;;;6.10;;
54831;SDS011;40730;53.068;6.572;2023-06-19T10:24:17;7.38;;;6.65;;
54831;SDS011;40730;53.068;6.572;2023-06-19T10:26:54;11.27;;;6.22;;
54831;SDS011;40730;53.068;6.572;2023-06-19T10:29:22;9.50;;;5.80;;
54831;SDS011;40730;53.068;6.572;2023-06-19T10:31:47;7.25;;;6.55;;
54831;SDS011;40730;53.068;6.572;2023-06-19T10:34:13;9.35;;;6.60;;
54831;SDS011;40730;53.068;6.572;2023-06-19T10:36:38;8.65;;;6.18;;
54831;SDS011;40730;53.068;6.572;2023-06-19T10:39:04;8.38;;;6.07;;
54831;SDS011;40730;53.068;6.572;2023-06-19T10:41:32;8.75;;;7.95;;
54831;SDS011;40730;53.068;6.572;2023-06-19T10:43:58;7.70;;;6.43;;
54831;SDS011;40730;53.068;6.572;2023-06-19T10:46:30;8.20;;;6.40;;
54831;SDS011;40730;53.068;6.572;2023-06-19T10:48:58;10.05;;;8.25;;
54831;SDS011;40730;53.068;6.572;2023-06-19T10:51:39;12.40;;;8.88;;
54831;SDS011;40730;53.068;6.572;2023-06-19T10:54:07;10.27;;;8.73;;
54831;SDS011;40730;53.068;6.572;2023-06-19T10:56:33;13.88;;;9.15;;
54831;SDS011;40730;53.068;6.572;2023-06-19T10:58:59;9.38;;;7.70;;
54831;SDS011;40730;53.068;6.572;2023-06-19T11:01:36;8.82;;;7.53;;
54831;SDS011;40730;53.068;6.572;2023-06-19T11:04:07;11.35;;;7.43;;
54831;SDS011;40730;53.068;6.572;2023-06-19T11:06:36;8.95;;;7.57;;
54831;SDS011;40730;53.068;6.572;2023-06-19T11:09:04;7.57;;;6.72;;
54831;SDS011;40730;53.068;6.572;2023-06-19T11:11:45;8.63;;;7.75;;
54831;SDS011;40730;53.068;6.572;2023-06-19T11:14:12;12.95;;;8.02;;
54831;SDS011;40730;53.068;6.572;2023-06-19T11:16:39;9.82;;;8.50;;
54831;SDS011;40730;53.068;6.572;2023-06-19T11:19:07;11.40;;;8.98;;
54831;SDS011;40730;53.068;6.572;2023-06-19T11:21:34;8.27;;;7.47;;
54831;SDS011;40730;53.068;6.572;2023-06-19T11:24:05;9.10;;;7.75;;
54831;SDS011;40730;53.068;6.572;2023-06-19T11:26:42;9.25;;;7.05;;
54831;SDS011;40730;53.068;6.572;2023-06-19T11:29:29;7.30;;;6.53;;
54831;SDS011;40730;53.068;6.572;2023-06-19T11:32:06;12.00;;;7.72;;
54831;SDS011;40730;53.068;6.572;2023-06-19T11:34:33;10.63;;;7.55;;
54831;SDS011;40730;53.068;6.572;2023-06-19T11:37:17;10.23;;;7.38;;
54831;SDS011;40730;53.068;6.572;2023-06-19T11:39:47;14.82;;;8.07;;
54831;SDS011;40730;53.068;6.572;2023-06-19T11:42:14;10.77;;;9.30;;
54831;SDS011;40730;53.068;6.572;2023-06-19T11:45:02;10.52;;;8.52;;
54831;SDS011;40730;53.068;6.572;2023-06-19T11:47:31;12.32;;;9.32;;
54831;SDS011;40730;53.068;6.572;2023-06-19T11:49:57;9.80;;;7.82;;
54831;SDS011;40730;53.068;6.572;2023-06-19T11:52:23;14.00;;;9.48;;
54831;SDS011;40730;53.068;6.572;2023-06-19T11:54:49;12.77;;;9.13;;
54831;SDS011;40730;53.068;6.572;2023-06-19T11:57:15;9.23;;;8.32;;
54831;SDS011;40730;53.068;6.572;2023-06-19T11:59:40;12.55;;;9.02;;
54831;SDS011;40730;53.068;6.572;2023-06-19T12:02:07;9.65;;;8.65;;
54831;SDS011;40730;53.068;6.572;2023-06-19T12:04:33;10.82;;;8.60;;
54831;SDS011;40730;53.068;6.572;2023-06-19T12:06:59;11.18;;;8.80;;
54831;SDS011;40730;53.068;6.572;2023-06-19T12:09:26;12.95;;;9.90;;
54831;SDS011;40730;53.068;6.572;2023-06-19T12:11:52;12.63;;;11.13;;
54831;SDS011;40730;53.068;6.572;2023-06-19T12:14:18;16.13;;;11.93;;
54831;SDS011;40730;53.068;6.572;2023-06-19T12:16:47;14.63;;;12.27;;
54831;SDS011;40730;53.068;6.572;2023-06-19T12:19:13;15.25;;;12.50;;
54831;SDS011;40730;53.068;6.572;2023-06-19T12:21:39;16.77;;;13.00;;
54831;SDS011;40730;53.068;6.572;2023-06-19T12:24:05;11.75;;;10.27;;
54831;SDS011;40730;53.068;6.572;2023-06-19T12:26:31;13.23;;;10.05;;
54831;SDS011;40730;53.068;6.572;2023-06-19T12:29:02;12.80;;;9.55;;
54831;SDS011;40730;53.068;6.572;2023-06-19T12:31:31;9.93;;;8.25;;
54831;SDS011;40730;53.068;6.572;2023-06-19T12:34:09;9.95;;;8.82;;
54831;SDS011;40730;53.068;6.572;2023-06-19T12:37:01;9.95;;;8.40;;
54831;SDS011;40730;53.068;6.572;2023-06-19T12:39:55;8.55;;;7.65;;
54831;SDS011;40730;53.068;6.572;2023-06-19T12:42:42;9.45;;;7.63;;
54831;SDS011;40730;53.068;6.572;2023-06-19T12:52:52;9.40;;;8.27;;
54831;SDS011;40730;53.068;6.572;2023-06-19T12:55:45;9.68;;;8.18;;
54831;SDS011;40730;53.068;6.572;2023-06-19T12:59:23;12.02;;;7.70;;
54831;SDS011;40730;53.068;6.572;2023-06-19T13:02:42;9.45;;;7.32;;
54831;SDS011;40730;53.068;6.572;2023-06-19T13:05:55;8.32;;;7.47;;
54831;SDS011;40730;53.068;6.572;2023-06-19T13:09:01;9.45;;;7.75;;
54831;SDS011;40730;53.068;6.572;2023-06-19T13:11:39;9.07;;;7.55;;
54831;SDS011;40730;53.068;6.572;2023-06-19T13:14:36;10.93;;;7.90;;
54831;SDS011;40730;53.068;6.572;2023-06-19T13:17:47;6.80;;;6.10;;
54831;SDS011;40730;53.068;6.572;2023-06-19T13:21:00;8.98;;;6.68;;
54831;SDS011;40730;53.068;6.572;2023-06-19T13:23:57;7.25;;;6.30;;
54831;SDS011;40730;53.068;6.572;2023-06-19T13:26:38;10.80;;;7.72;;
54831;SDS011;40730;53.068;6.572;2023-06-19T13:29:45;7.35;;;6.60;;
54831;SDS011;40730;53.068;6.572;2023-06-19T13:32:16;10.60;;;6.93;;
54831;SDS011;40730;53.068;6.572;2023-06-19T13:35:00;9.68;;;7.70;;
54831;SDS011;40730;53.068;6.572;2023-06-19T13:38:18;10.10;;;7.03;;
54831;SDS011;40730;53.068;6.572;2023-06-19T13:40:47;10.15;;;7.15;;
54831;SDS011;40730;53.068;6.572;2023-06-19T13:43:35;17.52;;;8.98;;
54831;SDS011;40730;53.068;6.572;2023-06-19T13:46:05;11.45;;;8.48;;
54831;SDS011;40730;53.068;6.572;2023-06-19T13:48:31;8.68;;;7.50;;
54831;SDS011;40730;53.068;6.572;2023-06-19T13:50:57;8.52;;;7.00;;
54831;SDS011;40730;53.068;6.572;2023-06-19T13:53:24;10.05;;;7.35;;
54831;SDS011;40730;53.068;6.572;2023-06-19T13:55:50;8.45;;;6.70;;
54831;SDS011;40730;53.068;6.572;2023-06-19T13:58:15;8.45;;;6.28;;
54831;SDS011;40730;53.068;6.572;2023-06-19T14:00:41;6.55;;;5.05;;
54831;SDS011;40730;53.068;6.572;2023-06-19T14:03:07;6.95;;;5.35;;
54831;SDS011;40730;53.068;6.572;2023-06-19T14:05:32;7.78;;;4.70;;
54831;SDS011;40730;53.068;6.572;2023-06-19T14:07:58;8.80;;;5.95;;
54831;SDS011;40730;53.068;6.572;2023-06-19T14:10:24;10.00;;;7.72;;
54831;SDS011;40730;53.068;6.572;2023-06-19T14:12:50;6.50;;;5.82;;
54831;SDS011;40730;53.068;6.572;2023-06-19T14:15:15;3.70;;;3.40;;
54831;SDS011;40730;53.068;6.572;2023-06-19T14:17:41;6.95;;;4.85;;
54831;SDS011;40730;53.068;6.572;2023-06-19T14:20:07;7.93;;;5.00;;
54831;SDS011;40730;53.068;6.572;2023-06-19T14:22:35;5.90;;;5.28;;
54831;SDS011;40730;53.068;6.572;2023-06-19T14:25:01;5.10;;;4.47;;
54831;SDS011;40730;53.068;6.572;2023-06-19T14:27:27;7.65;;;4.57;;
54831;SDS011;40730;53.068;6.572;2023-06-19T14:29:54;5.90;;;5.30;;
54831;SDS011;40730;53.068;6.572;2023-06-19T14:32:20;4.80;;;4.30;;
54831;SDS011;40730;53.068;6.572;2023-06-19T14:34:46;9.35;;;5.93;;
54831;SDS011;40730;53.068;6.572;2023-06-19T14:37:11;6.60;;;5.55;;
54831;SDS011;40730;53.068;6.572;2023-06-19T14:39:37;5.85;;;4.07;;
54831;SDS011;40730;53.068;6.572;2023-06-19T14:42:02;8.38;;;5.82;;
54831;SDS011;40730;53.068;6.572;2023-06-19T14:44:28;6.65;;;5.35;;
54831;SDS011;40730;53.068;6.572;2023-06-19T14:46:54;6.53;;;5.43;;
54831;SDS011;40730;53.068;6.572;2023-06-19T14:49:20;7.72;;;6.90;;
54831;SDS011;40730;53.068;6.572;2023-06-19T14:51:45;13.18;;;6.70;;
54831;SDS011;40730;53.068;6.572;2023-06-19T14:54:11;8.52;;;6.93;;
54831;SDS011;40730;53.068;6.572;2023-06-19T14:56:38;6.10;;;5.28;;
54831;SDS011;40730;53.068;6.572;2023-06-19T14:59:03;6.90;;;4.72;;
54831;SDS011;40730;53.068;6.572;2023-06-19T15:01:29;6.10;;;4.97;;
54831;SDS011;40730;53.068;6.572;2023-06-19T15:03:54;9.10;;;6.18;;
54831;SDS011;40730;53.068;6.572;2023-06-19T15:06:20;8.85;;;6.70;;
54831;SDS011;40730;53.068;6.572;2023-06-19T15:08:46;8.38;;;6.13;;